sensor_id;sensor_type;location;lat;lon;timestamp;P1;durP1;ratioP1;P2;durP2;ratioP2
20709;SDS011;10516;51.518;9.864;2022-08-19T00:01:42;14.70;;;12.50;;
20709;SDS011;10516;51.518;9.864;2022-08-19T00:04:10;20.63;;;15.60;;
20709;SDS011;10516;51.518;9.864;2022-08-19T00:06:40;26.75;;;18.77;;
20709;SDS011;10516;51.518;9.864;2022-08-19T00:09:08;14.18;;;12.50;;
20709;SDS011;10516;51.518;9.864;2022-08-19T00:11:36;19.42;;;16.27;;
20709;SDS011;10516;51.518;9.864;2022-08-19T00:14:02;18.35;;;14.48;;
20709;SDS011;10516;51.518;9.864;2022-08-19T00:16:29;21.92;;;14.77;;
20709;SDS011;10516;51.518;9.864;2022-08-19T00:18:55;14.95;;;11.00;;
20709;SDS011;10516;51.518;9.864;2022-08-19T00:21:21;14.30;;;10.73;;
20709;SDS011;10516;51.518;9.864;2022-08-19T00:23:51;11.93;;;10.63;;
20709;SDS011;10516;51.518;9.864;2022-08-19T00:26:18;11.50;;;9.75;;
20709;SDS011;10516;51.518;9.864;2022-08-19T00:28:43;13.65;;;12.23;;
20709;SDS011;10516;51.518;9.864;2022-08-19T00:31:09;14.02;;;12.52;;
20709;SDS011;10516;51.518;9.864;2022-08-19T00:33:34;21.08;;;13.38;;
20709;SDS011;10516;51.518;9.864;2022-08-19T00:36:05;15.18;;;11.85;;
20709;SDS011;10516;51.518;9.864;2022-08-19T00:38:32;16.25;;;14.35;;
20709;SDS011;10516;51.518;9.864;2022-08-19T00:40:58;19.95;;;14.50;;
20709;SDS011;10516;51.518;9.864;2022-08-19T00:43:25;15.70;;;13.95;;
20709;SDS011;10516;51.518;9.864;2022-08-19T00:45:52;14.68;;;11.57;;
20709;SDS011;10516;51.518;9.864;2022-08-19T00:48:19;17.77;;;11.07;;
20709;SDS011;10516;51.518;9.864;2022-08-19T00:50:45;16.98;;;11.98;;
20709;SDS011;10516;51.518;9.864;2022-08-19T00:53:14;10.13;;;8.85;;
20709;SDS011;10516;51.518;9.864;2022-08-19T00:55:44;11.77;;;8.85;;
20709;SDS011;10516;51.518;9.864;2022-08-19T00:58:17;17.63;;;14.35;;
20709;SDS011;10516;51.518;9.864;2022-08-19T01:00:45;17.48;;;13.90;;
20709;SDS011;10516;51.518;9.864;2022-08-19T01:03:12;20.38;;;15.15;;
20709;SDS011;10516;51.518;9.864;2022-08-19T01:05:42;11.80;;;9.85;;
20709;SDS011;10516;51.518;9.864;2022-08-19T01:08:09;17.73;;;14.13;;
20709;SDS011;10516;51.518;9.864;2022-08-19T01:10:41;20.73;;;14.38;;
20709;SDS011;10516;51.518;9.864;2022-08-19T01:13:10;20.95;;;13.93;;
20709;SDS011;10516;51.518;9.864;2022-08-19T01:15:41;22.50;;;11.20;;
20709;SDS011;10516;51.518;9.864;2022-08-19T01:18:10;18.75;;;14.23;;
20709;SDS011;10516;51.518;9.864;2022-08-19T01:20:38;18.40;;;15.02;;
20709;SDS011;10516;51.518;9.864;2022-08-19T01:23:04;16.60;;;14.35;;
20709;SDS011;10516;51.518;9.864;2022-08-19T01:25:52;13.32;;;11.02;;
20709;SDS011;10516;51.518;9.864;2022-08-19T01:28:18;22.40;;;14.00;;
20709;SDS011;10516;51.518;9.864;2022-08-19T01:30:46;15.98;;;11.23;;
20709;SDS011;10516;51.518;9.864;2022-08-19T01:33:12;17.90;;;14.77;;
20709;SDS011;10516;51.518;9.864;2022-08-19T01:35:38;14.75;;;10.88;;
20709;SDS011;10516;51.518;9.864;2022-08-19T01:38:05;16.15;;;13.10;;
20709;SDS011;10516;51.518;9.864;2022-08-19T01:40:33;15.68;;;12.10;;
20709;SDS011;10516;51.518;9.864;2022-08-19T01:43:00;14.55;;;11.38;;
20709;SDS011;10516;51.518;9.864;2022-08-19T01:45:27;14.88;;;13.32;;
20709;SDS011;10516;51.518;9.864;2022-08-19T01:47:54;21.33;;;13.60;;
20709;SDS011;10516;51.518;9.864;2022-08-19T01:50:20;13.88;;;11.80;;
20709;SDS011;10516;51.518;9.864;2022-08-19T01:52:46;16.10;;;11.30;;
20709;SDS011;10516;51.518;9.864;2022-08-19T01:55:20;20.35;;;12.02;;
20709;SDS011;10516;51.518;9.864;2022-08-19T01:57:50;13.52;;;9.68;;
20709;SDS011;10516;51.518;9.864;2022-08-19T02:00:22;13.13;;;9.73;;
20709;SDS011;10516;51.518;9.864;2022-08-19T02:02:49;13.90;;;10.75;;
20709;SDS011;10516;51.518;9.864;2022-08-19T02:05:14;13.57;;;9.38;;
20709;SDS011;10516;51.518;9.864;2022-08-19T02:07:41;9.38;;;8.27;;
20709;SDS011;10516;51.518;9.864;2022-08-19T02:10:08;10.48;;;9.43;;
20709;SDS011;10516;51.518;9.864;2022-08-19T02:12:37;15.93;;;9.88;;
20709;SDS011;10516;51.518;9.864;2022-08-19T02:15:02;15.30;;;10.20;;
20709;SDS011;10516;51.518;9.864;2022-08-19T02:17:29;11.35;;;8.60;;
20709;SDS011;10516;51.518;9.864;2022-08-19T02:19:55;16.63;;;9.75;;
20709;SDS011;10516;51.518;9.864;2022-08-19T02:22:21;14.25;;;10.27;;
20709;SDS011;10516;51.518;9.864;2022-08-19T02:24:48;12.43;;;10.32;;
20709;SDS011;10516;51.518;9.864;2022-08-19T02:27:14;11.60;;;9.30;;
20709;SDS011;10516;51.518;9.864;2022-08-19T02:29:40;15.00;;;9.73;;
20709;SDS011;10516;51.518;9.864;2022-08-19T02:32:06;9.27;;;7.80;;
20709;SDS011;10516;51.518;9.864;2022-08-19T02:34:33;9.48;;;8.65;;
20709;SDS011;10516;51.518;9.864;2022-08-19T02:36:58;13.52;;;9.63;;
20709;SDS011;10516;51.518;9.864;2022-08-19T02:39:24;10.43;;;9.32;;
20709;SDS011;10516;51.518;9.864;2022-08-19T02:41:49;12.65;;;8.38;;
20709;SDS011;10516;51.518;9.864;2022-08-19T02:44:17;15.20;;;10.07;;
20709;SDS011;10516;51.518;9.864;2022-08-19T02:46:44;7.85;;;6.53;;
20709;SDS011;10516;51.518;9.864;2022-08-19T02:49:11;9.35;;;7.50;;
20709;SDS011;10516;51.518;9.864;2022-08-19T02:51:39;6.93;;;6.22;;
20709;SDS011;10516;51.518;9.864;2022-08-19T02:54:07;9.95;;;6.60;;
20709;SDS011;10516;51.518;9.864;2022-08-19T02:56:34;11.85;;;7.57;;
20709;SDS011;10516;51.518;9.864;2022-08-19T02:59:02;11.93;;;9.23;;
20709;SDS011;10516;51.518;9.864;2022-08-19T03:01:33;13.77;;;9.80;;
20709;SDS011;10516;51.518;9.864;2022-08-19T03:04:01;14.75;;;10.30;;
20709;SDS011;10516;51.518;9.864;2022-08-19T03:06:29;18.30;;;10.25;;
20709;SDS011;10516;51.518;9.864;2022-08-19T03:08:55;12.65;;;9.50;;
20709;SDS011;10516;51.518;9.864;2022-08-19T03:11:23;16.02;;;10.07;;
20709;SDS011;10516;51.518;9.864;2022-08-19T03:13:56;12.50;;;9.07;;
20709;SDS011;10516;51.518;9.864;2022-08-19T03:16:25;7.75;;;6.95;;
20709;SDS011;10516;51.518;9.864;2022-08-19T03:18:53;7.93;;;7.20;;
20709;SDS011;10516;51.518;9.864;2022-08-19T03:21:20;11.80;;;7.70;;
20709;SDS011;10516;51.518;9.864;2022-08-19T03:23:49;14.13;;;6.70;;
20709;SDS011;10516;51.518;9.864;2022-08-19T03:26:15;10.70;;;8.95;;
20709;SDS011;10516;51.518;9.864;2022-08-19T03:28:41;7.38;;;6.55;;
20709;SDS011;10516;51.518;9.864;2022-08-19T03:31:09;8.75;;;6.20;;
20709;SDS011;10516;51.518;9.864;2022-08-19T03:33:37;13.10;;;7.65;;
20709;SDS011;10516;51.518;9.864;2022-08-19T03:36:10;10.27;;;6.57;;
20709;SDS011;10516;51.518;9.864;2022-08-19T03:38:39;7.77;;;6.30;;
20709;SDS011;10516;51.518;9.864;2022-08-19T03:41:07;9.18;;;6.20;;
20709;SDS011;10516;51.518;9.864;2022-08-19T03:43:37;9.10;;;6.60;;
20709;SDS011;10516;51.518;9.864;2022-08-19T03:46:05;9.10;;;7.00;;
20709;SDS011;10516;51.518;9.864;2022-08-19T03:48:33;9.52;;;6.13;;
20709;SDS011;10516;51.518;9.864;2022-08-19T03:50:59;8.48;;;5.60;;
20709;SDS011;10516;51.518;9.864;2022-08-19T03:53:28;6.18;;;5.30;;
20709;SDS011;10516;51.518;9.864;2022-08-19T03:55:55;6.88;;;5.68;;
20709;SDS011;10516;51.518;9.864;2022-08-19T03:58:22;7.13;;;5.50;;
20709;SDS011;10516;51.518;9.864;2022-08-19T04:00:47;7.72;;;6.00;;
20709;SDS011;10516;51.518;9.864;2022-08-19T04:03:13;8.23;;;5.65;;
20709;SDS011;10516;51.518;9.864;2022-08-19T04:05:39;6.35;;;5.75;;
20709;SDS011;10516;51.518;9.864;2022-08-19T04:08:04;9.73;;;6.18;;
20709;SDS011;10516;51.518;9.864;2022-08-19T04:10:31;6.50;;;4.93;;
20709;SDS011;10516;51.518;9.864;2022-08-19T04:13:00;10.02;;;5.88;;
20709;SDS011;10516;51.518;9.864;2022-08-19T04:15:26;5.97;;;5.40;;
20709;SDS011;10516;51.518;9.864;2022-08-19T04:17:53;6.55;;;5.55;;
20709;SDS011;10516;51.518;9.864;2022-08-19T04:20:19;8.32;;;5.72;;
20709;SDS011;10516;51.518;9.864;2022-08-19T04:22:45;5.47;;;4.97;;
20709;SDS011;10516;51.518;9.864;2022-08-19T04:25:10;7.18;;;5.32;;
20709;SDS011;10516;51.518;9.864;2022-08-19T04:27:35;7.70;;;5.43;;
20709;SDS011;10516;51.518;9.864;2022-08-19T04:30:01;10.43;;;5.70;;
20709;SDS011;10516;51.518;9.864;2022-08-19T04:32:27;5.80;;;5.30;;
20709;SDS011;10516;51.518;9.864;2022-08-19T04:34:53;5.30;;;4.53;;
20709;SDS011;10516;51.518;9.864;2022-08-19T04:37:21;5.53;;;4.78;;
20709;SDS011;10516;51.518;9.864;2022-08-19T04:39:46;4.80;;;4.10;;
20709;SDS011;10516;51.518;9.864;2022-08-19T04:42:30;5.30;;;4.80;;
20709;SDS011;10516;51.518;9.864;2022-08-19T04:45:05;5.53;;;5.03;;
20709;SDS011;10516;51.518;9.864;2022-08-19T04:47:34;11.80;;;4.47;;
20709;SDS011;10516;51.518;9.864;2022-08-19T04:50:01;6.78;;;4.60;;
20709;SDS011;10516;51.518;9.864;2022-08-19T04:52:27;6.53;;;4.72;;
20709;SDS011;10516;51.518;9.864;2022-08-19T04:54:53;4.75;;;4.35;;
20709;SDS011;10516;51.518;9.864;2022-08-19T04:57:20;6.15;;;4.32;;
20709;SDS011;10516;51.518;9.864;2022-08-19T04:59:46;5.80;;;4.13;;
20709;SDS011;10516;51.518;9.864;2022-08-19T05:02:11;5.03;;;4.53;;
20709;SDS011;10516;51.518;9.864;2022-08-19T05:04:36;5.65;;;4.53;;
20709;SDS011;10516;51.518;9.864;2022-08-19T05:07:04;4.72;;;3.83;;
20709;SDS011;10516;51.518;9.864;2022-08-19T05:09:30;6.60;;;3.58;;
20709;SDS011;10516;51.518;9.864;2022-08-19T05:11:56;4.13;;;3.17;;
20709;SDS011;10516;51.518;9.864;2022-08-19T05:14:21;5.40;;;4.07;;
20709;SDS011;10516;51.518;9.864;2022-08-19T05:16:48;3.40;;;3.20;;
20709;SDS011;10516;51.518;9.864;2022-08-19T05:19:13;5.00;;;4.28;;
20709;SDS011;10516;51.518;9.864;2022-08-19T05:21:58;6.18;;;5.13;;
20709;SDS011;10516;51.518;9.864;2022-08-19T05:24:43;5.47;;;4.32;;
20709;SDS011;10516;51.518;9.864;2022-08-19T05:27:09;5.18;;;4.13;;
20709;SDS011;10516;51.518;9.864;2022-08-19T05:29:34;5.00;;;4.50;;
20709;SDS011;10516;51.518;9.864;2022-08-19T05:32:00;5.15;;;4.05;;
20709;SDS011;10516;51.518;9.864;2022-08-19T05:34:29;4.95;;;4.45;;
20709;SDS011;10516;51.518;9.864;2022-08-19T05:36:57;5.88;;;4.63;;
20709;SDS011;10516;51.518;9.864;2022-08-19T05:39:27;6.13;;;4.25;;
20709;SDS011;10516;51.518;9.864;2022-08-19T05:41:56;5.15;;;4.30;;
20709;SDS011;10516;51.518;9.864;2022-08-19T05:44:27;8.05;;;5.47;;
20709;SDS011;10516;51.518;9.864;2022-08-19T05:47:00;6.32;;;4.00;;
20709;SDS011;10516;51.518;9.864;2022-08-19T05:49:27;5.35;;;4.35;;
20709;SDS011;10516;51.518;9.864;2022-08-19T05:51:53;4.70;;;4.28;;
20709;SDS011;10516;51.518;9.864;2022-08-19T05:54:21;4.97;;;4.28;;
20709;SDS011;10516;51.518;9.864;2022-08-19T05:56:48;5.38;;;4.18;;
20709;SDS011;10516;51.518;9.864;2022-08-19T05:59:16;6.88;;;4.38;;
20709;SDS011;10516;51.518;9.864;2022-08-19T06:01:43;6.40;;;4.03;;
20709;SDS011;10516;51.518;9.864;2022-08-19T06:04:11;4.90;;;4.18;;
20709;SDS011;10516;51.518;9.864;2022-08-19T06:06:38;5.13;;;4.25;;
20709;SDS011;10516;51.518;9.864;2022-08-19T06:09:04;5.45;;;4.10;;
20709;SDS011;10516;51.518;9.864;2022-08-19T06:14:00;4.70;;;4.15;;
20709;SDS011;10516;51.518;9.864;2022-08-19T06:16:46;4.13;;;3.72;;
20709;SDS011;10516;51.518;9.864;2022-08-19T06:19:15;5.85;;;5.30;;
20709;SDS011;10516;51.518;9.864;2022-08-19T06:21:43;5.43;;;4.90;;
20709;SDS011;10516;51.518;9.864;2022-08-19T06:24:10;5.65;;;4.88;;
20709;SDS011;10516;51.518;9.864;2022-08-19T06:26:39;6.57;;;4.65;;
20709;SDS011;10516;51.518;9.864;2022-08-19T06:29:06;4.15;;;3.75;;
20709;SDS011;10516;51.518;9.864;2022-08-19T06:31:33;4.95;;;4.47;;
20709;SDS011;10516;51.518;9.864;2022-08-19T06:34:01;4.53;;;4.03;;
20709;SDS011;10516;51.518;9.864;2022-08-19T06:36:33;5.05;;;4.07;;
20709;SDS011;10516;51.518;9.864;2022-08-19T06:39:04;4.65;;;4.05;;
20709;SDS011;10516;51.518;9.864;2022-08-19T06:41:34;6.72;;;5.65;;
20709;SDS011;10516;51.518;9.864;2022-08-19T06:44:01;7.00;;;5.68;;
20709;SDS011;10516;51.518;9.864;2022-08-19T06:46:27;6.53;;;4.80;;
20709;SDS011;10516;51.518;9.864;2022-08-19T06:48:53;4.03;;;3.67;;
20709;SDS011;10516;51.518;9.864;2022-08-19T06:51:19;5.15;;;4.68;;
20709;SDS011;10516;51.518;9.864;2022-08-19T06:53:46;5.07;;;4.57;;
20709;SDS011;10516;51.518;9.864;2022-08-19T06:56:14;5.95;;;5.28;;
20709;SDS011;10516;51.518;9.864;2022-08-19T06:58:40;4.40;;;4.00;;
20709;SDS011;10516;51.518;9.864;2022-08-19T07:01:06;7.22;;;5.22;;
20709;SDS011;10516;51.518;9.864;2022-08-19T07:03:32;7.13;;;5.60;;
20709;SDS011;10516;51.518;9.864;2022-08-19T07:06:07;4.70;;;4.28;;
20709;SDS011;10516;51.518;9.864;2022-08-19T07:08:35;6.25;;;4.70;;
20709;SDS011;10516;51.518;9.864;2022-08-19T07:11:06;6.28;;;4.95;;
20709;SDS011;10516;51.518;9.864;2022-08-19T07:13:32;4.28;;;3.97;;
20709;SDS011;10516;51.518;9.864;2022-08-19T07:16:05;4.20;;;3.80;;
20709;SDS011;10516;51.518;9.864;2022-08-19T07:18:31;7.50;;;4.72;;
20709;SDS011;10516;51.518;9.864;2022-08-19T07:21:04;5.97;;;5.35;;
20709;SDS011;10516;51.518;9.864;2022-08-19T07:23:30;4.47;;;4.03;;
20709;SDS011;10516;51.518;9.864;2022-08-19T07:25:56;5.70;;;4.70;;
20709;SDS011;10516;51.518;9.864;2022-08-19T07:28:22;7.13;;;4.78;;
20709;SDS011;10516;51.518;9.864;2022-08-19T07:30:47;5.78;;;4.22;;
20709;SDS011;10516;51.518;9.864;2022-08-19T07:33:13;6.35;;;4.95;;
20709;SDS011;10516;51.518;9.864;2022-08-19T07:35:38;9.18;;;5.38;;
20709;SDS011;10516;51.518;9.864;2022-08-19T07:38:04;8.82;;;5.10;;
20709;SDS011;10516;51.518;9.864;2022-08-19T07:40:29;7.68;;;5.38;;
20709;SDS011;10516;51.518;9.864;2022-08-19T07:42:55;6.85;;;4.30;;
20709;SDS011;10516;51.518;9.864;2022-08-19T07:45:21;7.53;;;5.22;;
20709;SDS011;10516;51.518;9.864;2022-08-19T07:47:46;7.68;;;5.40;;
20709;SDS011;10516;51.518;9.864;2022-08-19T07:50:11;6.10;;;5.15;;
20709;SDS011;10516;51.518;9.864;2022-08-19T07:52:37;7.50;;;5.32;;
20709;SDS011;10516;51.518;9.864;2022-08-19T07:55:04;7.28;;;4.50;;
20709;SDS011;10516;51.518;9.864;2022-08-19T07:57:32;7.38;;;4.60;;
20709;SDS011;10516;51.518;9.864;2022-08-19T07:59:58;7.85;;;4.88;;
20709;SDS011;10516;51.518;9.864;2022-08-19T08:02:23;6.28;;;4.47;;
20709;SDS011;10516;51.518;9.864;2022-08-19T08:04:49;5.47;;;4.72;;
20709;SDS011;10516;51.518;9.864;2022-08-19T08:07:33;7.88;;;4.80;;
20709;SDS011;10516;51.518;9.864;2022-08-19T08:10:30;5.15;;;3.92;;
20709;SDS011;10516;51.518;9.864;2022-08-19T08:12:57;4.72;;;3.80;;
20709;SDS011;10516;51.518;9.864;2022-08-19T08:15:22;6.70;;;4.13;;
20709;SDS011;10516;51.518;9.864;2022-08-19T08:17:47;7.30;;;3.72;;
20709;SDS011;10516;51.518;9.864;2022-08-19T08:20:14;4.47;;;4.03;;
20709;SDS011;10516;51.518;9.864;2022-08-19T08:22:42;5.32;;;4.43;;
20709;SDS011;10516;51.518;9.864;2022-08-19T08:25:48;5.85;;;4.20;;
20709;SDS011;10516;51.518;9.864;2022-08-19T08:28:14;3.80;;;3.50;;
20709;SDS011;10516;51.518;9.864;2022-08-19T08:30:40;4.35;;;3.35;;
20709;SDS011;10516;51.518;9.864;2022-08-19T08:33:07;3.58;;;3.22;;
20709;SDS011;10516;51.518;9.864;2022-08-19T08:35:33;6.18;;;3.30;;
20709;SDS011;10516;51.518;9.864;2022-08-19T08:37:59;7.93;;;4.18;;
20709;SDS011;10516;51.518;9.864;2022-08-19T08:49:16;5.90;;;3.97;;
20709;SDS011;10516;51.518;9.864;2022-08-19T08:52:03;5.10;;;4.60;;
20709;SDS011;10516;51.518;9.864;2022-08-19T08:54:39;5.22;;;4.25;;
20709;SDS011;10516;51.518;9.864;2022-08-19T08:59:38;5.43;;;3.35;;
20709;SDS011;10516;51.518;9.864;2022-08-19T09:02:06;3.70;;;3.40;;
20709;SDS011;10516;51.518;9.864;2022-08-19T09:04:34;4.28;;;3.53;;
20709;SDS011;10516;51.518;9.864;2022-08-19T09:09:48;4.75;;;3.90;;
20709;SDS011;10516;51.518;9.864;2022-08-19T09:15:15;4.97;;;3.97;;
20709;SDS011;10516;51.518;9.864;2022-08-19T09:17:48;4.85;;;3.55;;
20709;SDS011;10516;51.518;9.864;2022-08-19T09:20:15;4.82;;;3.70;;
20709;SDS011;10516;51.518;9.864;2022-08-19T09:22:44;5.97;;;3.85;;
20709;SDS011;10516;51.518;9.864;2022-08-19T09:25:10;4.03;;;3.63;;
20709;SDS011;10516;51.518;9.864;2022-08-19T09:27:38;5.88;;;3.15;;
20709;SDS011;10516;51.518;9.864;2022-08-19T09:30:06;4.65;;;3.63;;
20709;SDS011;10516;51.518;9.864;2022-08-19T09:32:33;3.88;;;3.45;;
20709;SDS011;10516;51.518;9.864;2022-08-19T09:35:04;3.67;;;3.10;;
20709;SDS011;10516;51.518;9.864;2022-08-19T09:37:31;3.35;;;3.03;;
20709;SDS011;10516;51.518;9.864;2022-08-19T09:39:56;3.30;;;2.97;;
20709;SDS011;10516;51.518;9.864;2022-08-19T09:42:22;3.17;;;2.88;;
20709;SDS011;10516;51.518;9.864;2022-08-19T09:44:48;3.95;;;2.70;;
20709;SDS011;10516;51.518;9.864;2022-08-19T09:47:13;7.95;;;3.30;;
20709;SDS011;10516;51.518;9.864;2022-08-19T09:49:39;4.40;;;2.80;;
20709;SDS011;10516;51.518;9.864;2022-08-19T09:52:05;3.03;;;2.83;;
20709;SDS011;10516;51.518;9.864;2022-08-19T09:54:34;13.90;;;3.20;;
20709;SDS011;10516;51.518;9.864;2022-08-19T09:57:00;6.18;;;3.25;;
20709;SDS011;10516;51.518;9.864;2022-08-19T09:59:26;4.53;;;2.97;;
20709;SDS011;10516;51.518;9.864;2022-08-19T10:01:52;6.38;;;2.72;;
20709;SDS011;10516;51.518;9.864;2022-08-19T10:04:17;3.28;;;2.50;;
20709;SDS011;10516;51.518;9.864;2022-08-19T10:06:43;3.15;;;2.45;;
20709;SDS011;10516;51.518;9.864;2022-08-19T10:09:09;4.28;;;3.10;;
20709;SDS011;10516;51.518;9.864;2022-08-19T10:11:36;6.07;;;2.75;;
20709;SDS011;10516;51.518;9.864;2022-08-19T10:14:05;5.68;;;3.10;;
20709;SDS011;10516;51.518;9.864;2022-08-19T10:16:31;3.42;;;3.05;;
20709;SDS011;10516;51.518;9.864;2022-08-19T10:18:57;3.75;;;2.60;;
20709;SDS011;10516;51.518;9.864;2022-08-19T10:21:25;3.05;;;2.65;;
20709;SDS011;10516;51.518;9.864;2022-08-19T10:23:53;3.35;;;3.05;;
20709;SDS011;10516;51.518;9.864;2022-08-19T10:26:23;2.75;;;2.50;;
20709;SDS011;10516;51.518;9.864;2022-08-19T10:28:52;3.08;;;2.78;;
20709;SDS011;10516;51.518;9.864;2022-08-19T10:31:20;4.07;;;2.65;;
20709;SDS011;10516;51.518;9.864;2022-08-19T10:33:48;5.35;;;2.75;;
20709;SDS011;10516;51.518;9.864;2022-08-19T10:36:18;2.33;;;2.00;;
20709;SDS011;10516;51.518;9.864;2022-08-19T10:38:45;2.95;;;2.33;;
20709;SDS011;10516;51.518;9.864;2022-08-19T10:41:15;2.85;;;2.53;;
20709;SDS011;10516;51.518;9.864;2022-08-19T10:43:43;3.03;;;2.53;;
20709;SDS011;10516;51.518;9.864;2022-08-19T10:46:11;2.65;;;2.33;;
20709;SDS011;10516;51.518;9.864;2022-08-19T10:48:38;3.45;;;2.20;;
20709;SDS011;10516;51.518;9.864;2022-08-19T10:51:04;2.33;;;2.13;;
20709;SDS011;10516;51.518;9.864;2022-08-19T10:53:49;4.57;;;3.35;;
20709;SDS011;10516;51.518;9.864;2022-08-19T10:56:14;2.80;;;2.60;;
20709;SDS011;10516;51.518;9.864;2022-08-19T10:58:59;3.95;;;2.42;;
20709;SDS011;10516;51.518;9.864;2022-08-19T11:01:27;2.92;;;2.63;;
20709;SDS011;10516;51.518;9.864;2022-08-19T11:03:54;2.40;;;2.25;;
20709;SDS011;10516;51.518;9.864;2022-08-19T11:06:22;4.18;;;2.72;;
20709;SDS011;10516;51.518;9.864;2022-08-19T11:08:50;3.47;;;2.15;;
20709;SDS011;10516;51.518;9.864;2022-08-19T11:11:16;6.38;;;2.40;;
20709;SDS011;10516;51.518;9.864;2022-08-19T11:13:42;2.50;;;2.30;;
20709;SDS011;10516;51.518;9.864;2022-08-19T11:16:11;2.63;;;2.22;;
20709;SDS011;10516;51.518;9.864;2022-08-19T11:18:44;2.80;;;2.20;;
20709;SDS011;10516;51.518;9.864;2022-08-19T11:21:16;2.00;;;1.90;;
20709;SDS011;10516;51.518;9.864;2022-08-19T11:23:45;2.50;;;2.25;;
20709;SDS011;10516;51.518;9.864;2022-08-19T11:26:12;4.35;;;2.60;;
20709;SDS011;10516;51.518;9.864;2022-08-19T11:28:38;6.10;;;2.35;;
20709;SDS011;10516;51.518;9.864;2022-08-19T11:31:04;4.03;;;2.22;;
20709;SDS011;10516;51.518;9.864;2022-08-19T11:33:35;3.35;;;1.92;;
20709;SDS011;10516;51.518;9.864;2022-08-19T11:36:01;2.30;;;2.08;;
20709;SDS011;10516;51.518;9.864;2022-08-19T11:38:27;4.70;;;1.88;;
20709;SDS011;10516;51.518;9.864;2022-08-19T11:40:57;4.32;;;1.88;;
20709;SDS011;10516;51.518;9.864;2022-08-19T11:43:25;3.45;;;1.98;;
20709;SDS011;10516;51.518;9.864;2022-08-19T11:45:52;2.55;;;1.75;;
20709;SDS011;10516;51.518;9.864;2022-08-19T11:48:18;2.03;;;1.70;;
20709;SDS011;10516;51.518;9.864;2022-08-19T11:50:48;1.80;;;1.70;;
20709;SDS011;10516;51.518;9.864;2022-08-19T11:53:14;3.08;;;2.05;;
20709;SDS011;10516;51.518;9.864;2022-08-19T11:55:40;4.45;;;1.67;;
20709;SDS011;10516;51.518;9.864;2022-08-19T11:58:05;3.38;;;2.17;;
20709;SDS011;10516;51.518;9.864;2022-08-19T12:00:33;3.85;;;1.85;;
20709;SDS011;10516;51.518;9.864;2022-08-19T12:03:01;5.97;;;2.17;;
20709;SDS011;10516;51.518;9.864;2022-08-19T12:05:27;2.20;;;2.00;;
20709;SDS011;10516;51.518;9.864;2022-08-19T12:07:52;1.50;;;1.40;;
20709;SDS011;10516;51.518;9.864;2022-08-19T12:10:19;2.10;;;2.00;;
20709;SDS011;10516;51.518;9.864;2022-08-19T12:12:45;2.45;;;2.15;;
20709;SDS011;10516;51.518;9.864;2022-08-19T12:15:11;2.00;;;1.90;;
20709;SDS011;10516;51.518;9.864;2022-08-19T12:17:39;2.55;;;1.70;;
20709;SDS011;10516;51.518;9.864;2022-08-19T12:20:05;1.75;;;1.63;;
20709;SDS011;10516;51.518;9.864;2022-08-19T12:22:33;2.50;;;1.95;;
20709;SDS011;10516;51.518;9.864;2022-08-19T12:24:59;2.00;;;1.90;;
20709;SDS011;10516;51.518;9.864;2022-08-19T12:27:25;1.83;;;1.50;;
20709;SDS011;10516;51.518;9.864;2022-08-19T12:29:51;2.00;;;1.80;;
20709;SDS011;10516;51.518;9.864;2022-08-19T12:32:16;3.45;;;2.38;;
20709;SDS011;10516;51.518;9.864;2022-08-19T12:34:42;2.50;;;2.30;;
20709;SDS011;10516;51.518;9.864;2022-08-19T12:37:07;3.35;;;2.20;;
20709;SDS011;10516;51.518;9.864;2022-08-19T12:39:37;4.03;;;2.05;;
20709;SDS011;10516;51.518;9.864;2022-08-19T12:42:06;2.20;;;2.05;;
20709;SDS011;10516;51.518;9.864;2022-08-19T12:44:33;3.83;;;2.25;;
20709;SDS011;10516;51.518;9.864;2022-08-19T12:46:59;2.10;;;1.90;;
20709;SDS011;10516;51.518;9.864;2022-08-19T12:49:26;2.05;;;1.92;;
20709;SDS011;10516;51.518;9.864;2022-08-19T12:51:52;3.38;;;2.10;;
20709;SDS011;10516;51.518;9.864;2022-08-19T12:54:18;2.38;;;1.83;;
20709;SDS011;10516;51.518;9.864;2022-08-19T12:56:48;3.15;;;2.78;;
20709;SDS011;10516;51.518;9.864;2022-08-19T12:59:13;2.60;;;2.40;;
20709;SDS011;10516;51.518;9.864;2022-08-19T13:01:41;2.33;;;2.13;;
20709;SDS011;10516;51.518;9.864;2022-08-19T13:04:08;3.13;;;2.30;;
20709;SDS011;10516;51.518;9.864;2022-08-19T13:06:34;6.15;;;2.22;;
20709;SDS011;10516;51.518;9.864;2022-08-19T13:09:00;2.42;;;2.15;;
20709;SDS011;10516;51.518;9.864;2022-08-19T13:11:25;2.38;;;2.17;;
20709;SDS011;10516;51.518;9.864;2022-08-19T13:13:51;7.22;;;2.35;;
20709;SDS011;10516;51.518;9.864;2022-08-19T13:16:18;1.90;;;1.80;;
20709;SDS011;10516;51.518;9.864;2022-08-19T13:18:45;2.72;;;2.00;;
20709;SDS011;10516;51.518;9.864;2022-08-19T13:21:12;3.58;;;1.95;;
20709;SDS011;10516;51.518;9.864;2022-08-19T13:23:39;2.15;;;1.83;;
20709;SDS011;10516;51.518;9.864;2022-08-19T13:26:06;2.45;;;1.92;;
20709;SDS011;10516;51.518;9.864;2022-08-19T13:28:33;2.05;;;1.95;;
20709;SDS011;10516;51.518;9.864;2022-08-19T13:31:19;2.53;;;2.15;;
20709;SDS011;10516;51.518;9.864;2022-08-19T13:34:04;2.30;;;2.10;;
20709;SDS011;10516;51.518;9.864;2022-08-19T13:36:31;2.72;;;2.53;;
20709;SDS011;10516;51.518;9.864;2022-08-19T13:38:57;4.50;;;2.67;;
20709;SDS011;10516;51.518;9.864;2022-08-19T13:41:23;2.85;;;2.65;;
20709;SDS011;10516;51.518;9.864;2022-08-19T13:43:49;3.38;;;2.22;;
20709;SDS011;10516;51.518;9.864;2022-08-19T13:46:14;2.40;;;1.95;;
20709;SDS011;10516;51.518;9.864;2022-08-19T13:48:40;3.00;;;2.70;;
20709;SDS011;10516;51.518;9.864;2022-08-19T13:51:06;4.15;;;2.85;;
20709;SDS011;10516;51.518;9.864;2022-08-19T13:53:38;3.25;;;2.10;;
20709;SDS011;10516;51.518;9.864;2022-08-19T13:56:08;2.88;;;2.63;;
20709;SDS011;10516;51.518;9.864;2022-08-19T13:58:35;3.35;;;3.05;;
20709;SDS011;10516;51.518;9.864;2022-08-19T14:01:02;3.90;;;2.22;;
20709;SDS011;10516;51.518;9.864;2022-08-19T14:03:28;3.33;;;2.30;;
20709;SDS011;10516;51.518;9.864;2022-08-19T14:05:54;8.68;;;2.40;;
20709;SDS011;10516;51.518;9.864;2022-08-19T14:08:19;3.03;;;2.72;;
20709;SDS011;10516;51.518;9.864;2022-08-19T14:10:45;5.10;;;2.78;;
20709;SDS011;10516;51.518;9.864;2022-08-19T14:13:13;3.03;;;2.10;;
20709;SDS011;10516;51.518;9.864;2022-08-19T14:15:41;2.90;;;1.85;;
20709;SDS011;10516;51.518;9.864;2022-08-19T14:18:06;2.47;;;2.28;;
20709;SDS011;10516;51.518;9.864;2022-08-19T14:20:35;4.63;;;2.30;;
20709;SDS011;10516;51.518;9.864;2022-08-19T14:23:01;2.55;;;2.20;;
20709;SDS011;10516;51.518;9.864;2022-08-19T14:25:28;3.53;;;2.25;;
20709;SDS011;10516;51.518;9.864;2022-08-19T14:27:55;6.57;;;3.15;;
20709;SDS011;10516;51.518;9.864;2022-08-19T14:30:24;2.90;;;2.60;;
20709;SDS011;10516;51.518;9.864;2022-08-19T14:32:52;3.10;;;2.80;;
20709;SDS011;10516;51.518;9.864;2022-08-19T14:35:19;2.47;;;2.00;;
20709;SDS011;10516;51.518;9.864;2022-08-19T14:37:46;2.72;;;2.33;;
20709;SDS011;10516;51.518;9.864;2022-08-19T14:40:14;3.13;;;2.85;;
20709;SDS011;10516;51.518;9.864;2022-08-19T14:42:41;2.40;;;2.20;;
20709;SDS011;10516;51.518;9.864;2022-08-19T14:45:08;3.15;;;2.22;;
20709;SDS011;10516;51.518;9.864;2022-08-19T14:47:34;8.23;;;2.65;;
20709;SDS011;10516;51.518;9.864;2022-08-19T14:50:00;3.15;;;2.30;;
20709;SDS011;10516;51.518;9.864;2022-08-19T14:52:26;2.60;;;2.40;;
20709;SDS011;10516;51.518;9.864;2022-08-19T14:54:51;2.53;;;2.33;;
20709;SDS011;10516;51.518;9.864;2022-08-19T14:57:17;3.25;;;2.55;;
20709;SDS011;10516;51.518;9.864;2022-08-19T14:59:43;2.63;;;2.40;;
20709;SDS011;10516;51.518;9.864;2022-08-19T15:02:09;2.92;;;2.55;;
20709;SDS011;10516;51.518;9.864;2022-08-19T15:04:35;13.88;;;2.97;;
20709;SDS011;10516;51.518;9.864;2022-08-19T15:07:00;7.68;;;3.03;;